createdAt,value
2022-08-26T00:00:09.656Z,66.84
2022-08-26T00:02:41.634Z,66.62
2022-08-26T00:05:12.568Z,66.36
2022-08-26T00:07:40.762Z,66.67
2022-08-26T00:10:12.639Z,66.68
2022-08-26T00:12:41.393Z,66.23
2022-08-26T00:15:13.307Z,65.37
2022-08-26T00:17:41.706Z,65.23
2022-08-26T00:20:11.469Z,65.17
2022-08-26T00:22:39.426Z,64.61
2022-08-26T00:25:12.785Z,64.62
2022-08-26T00:27:40.964Z,64.11
2022-08-26T00:30:12.695Z,63.42
2022-08-26T00:32:41.750Z,63.31
2022-08-26T00:35:15.336Z,62.43
2022-08-26T00:37:43.965Z,62.61
2022-08-26T00:40:18.993Z,62.33
2022-08-26T00:42:46.782Z,62.69
2022-08-26T00:45:22.578Z,62.48
2022-08-26T00:47:56.726Z,62.62
2022-08-26T00:50:32.048Z,62.58
2022-08-26T00:53:02.778Z,62.87
2022-08-26T00:55:38.028Z,62.94
2022-08-26T00:58:07.796Z,63.90
2022-08-26T01:00:36.395Z,63.84
2022-08-26T01:03:05.193Z,64.05
2022-08-26T01:05:33.171Z,64.21
2022-08-26T01:08:03.596Z,64.71
2022-08-26T01:10:31.977Z,65.07
2022-08-26T01:13:10.666Z,65.44
2022-08-26T01:15:45.825Z,65.32
2022-08-26T01:18:16.419Z,65.27
2022-08-26T01:21:03.851Z,65.36
2022-08-26T01:23:38.824Z,64.95
2022-08-26T01:26:19.400Z,64.77
2022-08-26T01:28:55.769Z,64.40
2022-08-26T01:31:33.811Z,64.66
2022-08-26T01:34:22.743Z,64.37
2022-08-26T01:36:54.929Z,64.03
2022-08-26T01:39:22.780Z,64.20
2022-08-26T01:41:54.841Z,64.04
2022-08-26T01:44:27.553Z,64.06
2022-08-26T01:46:57.388Z,64.20
2022-08-26T01:49:27.647Z,64.31
2022-08-26T01:51:57.826Z,64.40
2022-08-26T01:54:30.408Z,64.58
2022-08-26T01:56:59.294Z,64.26
2022-08-26T01:59:27.448Z,63.91
2022-08-26T02:01:55.278Z,63.86
2022-08-26T02:04:38.710Z,63.75
2022-08-26T02:07:10.136Z,63.53
2022-08-26T02:09:41.224Z,63.08
2022-08-26T02:12:12.358Z,62.84
2022-08-26T02:14:44.528Z,62.74
2022-08-26T02:17:13.625Z,62.61
2022-08-26T02:19:45.599Z,62.51
2022-08-26T02:22:17.039Z,62.48
2022-08-26T02:24:47.866Z,62.46
2022-08-26T02:27:21.065Z,63.10
2022-08-26T02:29:55.362Z,63.57
2022-08-26T02:32:24.965Z,63.17
2022-08-26T02:34:54.803Z,63.08
2022-08-26T02:37:23.025Z,62.93
2022-08-26T02:39:50.665Z,63.20
2022-08-26T02:42:19.671Z,63.25
2022-08-26T02:44:47.577Z,63.05
2022-08-26T02:47:15.674Z,63.16
2022-08-26T02:49:44.627Z,63.09
2022-08-26T02:52:20.054Z,63.23
2022-08-26T02:54:49.620Z,63.08
2022-08-26T02:57:17.271Z,63.38
2022-08-26T02:59:45.077Z,63.33
2022-08-26T03:02:13.375Z,63.62
2022-08-26T03:04:41.405Z,63.89
2022-08-26T03:07:25.561Z,64.02
2022-08-26T03:09:53.610Z,64.36
2022-08-26T03:12:21.069Z,64.69
2022-08-26T03:14:49.096Z,64.71
2022-08-26T03:17:16.613Z,65.26
2022-08-26T03:19:57.048Z,65.47
2022-08-26T03:22:25.978Z,66.17
2022-08-26T03:25:03.845Z,66.61
2022-08-26T03:27:31.153Z,66.25
2022-08-26T03:30:19.947Z,66.61
2022-08-26T03:32:47.853Z,66.59
2022-08-26T03:35:16.521Z,66.57
2022-08-26T03:37:44.720Z,66.77
2022-08-26T03:40:14.242Z,66.93
2022-08-26T03:42:45.316Z,66.08
2022-08-26T03:45:13.729Z,66.12
2022-08-26T03:47:43.560Z,66.65
2022-08-26T03:50:14.693Z,66.86
2022-08-26T03:52:44.111Z,66.93
2022-08-26T03:55:12.675Z,66.96
2022-08-26T03:57:41.036Z,67.11
2022-08-26T04:00:18.392Z,66.78
2022-08-26T04:02:53.489Z,67.07
2022-08-26T04:05:24.306Z,67.09
2022-08-26T04:07:52.405Z,66.70
2022-08-26T04:10:28.922Z,66.70
2022-08-26T04:13:36.744Z,66.97
2022-08-26T04:16:04.610Z,67.21
2022-08-26T04:21:34.609Z,67.99
2022-08-26T04:24:03.639Z,68.03
2022-08-26T04:26:39.552Z,67.57
2022-08-26T04:29:14.977Z,68.26
2022-08-26T04:31:42.875Z,67.92
2022-08-26T04:34:11.298Z,67.77
2022-08-26T04:36:43.474Z,68.19
2022-08-26T04:39:14.551Z,68.71
2022-08-26T04:41:42.083Z,69.49
2022-08-26T04:44:09.725Z,69.58
2022-08-26T04:46:43.959Z,70.24
2022-08-26T04:49:12.553Z,70.29
2022-08-26T04:51:40.922Z,71.08
2022-08-26T04:54:08.903Z,71.06
2022-08-26T04:56:39.736Z,71.70
2022-08-26T04:59:16.914Z,71.86
2022-08-26T05:01:52.148Z,71.57
2022-08-26T05:04:21.394Z,71.21
2022-08-26T05:06:51.910Z,71.81
2022-08-26T05:09:19.932Z,71.51
2022-08-26T05:11:48.520Z,71.64
2022-08-26T05:14:21.706Z,72.38
2022-08-26T05:16:50.465Z,72.59
2022-08-26T05:19:18.880Z,72.66
2022-08-26T05:21:48.867Z,72.82
2022-08-26T05:24:17.494Z,73.29
2022-08-26T05:26:47.215Z,73.50
2022-08-26T05:29:23.734Z,72.95
2022-08-26T05:31:53.699Z,73.00
2022-08-26T05:34:30.274Z,72.38
2022-08-26T05:36:58.497Z,72.12
2022-08-26T05:39:26.291Z,71.53
2022-08-26T05:41:54.026Z,71.38
2022-08-26T05:44:22.434Z,71.10
2022-08-26T05:46:51.265Z,70.83
2022-08-26T05:49:19.107Z,70.98
2022-08-26T05:51:47.632Z,70.60
2022-08-26T05:54:22.371Z,70.19
2022-08-26T05:56:53.311Z,69.99
2022-08-26T05:59:24.580Z,69.51
2022-08-26T06:01:55.497Z,69.43
2022-08-26T06:04:29.906Z,69.08
2022-08-26T06:06:59.925Z,69.06
2022-08-26T06:09:32.843Z,69.03
2022-08-26T06:12:02.258Z,68.66
2022-08-26T06:14:30.872Z,68.79
2022-08-26T06:17:00.170Z,68.81
2022-08-26T06:19:33.117Z,68.86
2022-08-26T06:22:23.284Z,68.97
2022-08-26T06:25:10.105Z,69.07
2022-08-26T06:27:37.904Z,69.36
2022-08-26T06:30:06.973Z,68.75
2022-08-26T06:32:35.108Z,68.48
2022-08-26T06:35:02.884Z,68.31
2022-08-26T06:37:33.856Z,68.01
2022-08-26T06:40:03.337Z,67.59
2022-08-26T06:42:33.327Z,67.27
2022-08-26T06:45:11.318Z,67.19
2022-08-26T06:47:40.431Z,66.88
2022-08-26T06:50:19.815Z,67.02
2022-08-26T06:52:50.306Z,66.72
2022-08-26T06:55:27.145Z,66.17
2022-08-26T06:57:59.367Z,65.41
2022-08-26T07:00:33.347Z,65.03
2022-08-26T07:03:07.407Z,64.32
2022-08-26T07:05:41.021Z,63.72
2022-08-26T07:08:21.617Z,62.86
2022-08-26T07:11:39.226Z,62.28
2022-08-26T07:14:09.536Z,62.57
2022-08-26T07:16:37.739Z,61.25
2022-08-26T07:19:11.068Z,60.76
2022-08-26T07:21:47.730Z,60.36
2022-08-26T07:24:18.057Z,60.23
2022-08-26T07:26:45.561Z,60.81
2022-08-26T07:29:20.894Z,60.22
2022-08-26T07:31:52.261Z,59.38
2022-08-26T07:34:27.644Z,59.01
2022-08-26T07:36:57.289Z,58.94
2022-08-26T07:39:27.860Z,59.17
2022-08-26T07:42:08.193Z,58.66
2022-08-26T07:44:37.799Z,58.55
2022-08-26T07:47:10.553Z,57.70
2022-08-26T07:49:56.789Z,57.43
2022-08-26T07:52:33.074Z,57.52
2022-08-26T07:55:10.930Z,57.51
2022-08-26T07:57:40.481Z,56.50
2022-08-26T08:00:16.473Z,56.09
2022-08-26T08:02:45.430Z,55.82
2022-08-26T08:05:17.405Z,56.06
2022-08-26T08:07:45.630Z,55.95
2022-08-26T08:10:21.514Z,55.51
2022-08-26T08:12:56.312Z,55.33
2022-08-26T08:15:28.489Z,55.11
2022-08-26T08:18:00.624Z,55.21
2022-08-26T08:20:30.870Z,54.73
2022-08-26T08:22:58.671Z,54.55
2022-08-26T08:25:26.555Z,53.51
2022-08-26T08:27:54.103Z,53.14
2022-08-26T08:30:23.278Z,52.46
2022-08-26T08:32:51.467Z,51.86
2022-08-26T08:35:22.981Z,51.95
2022-08-26T08:37:55.511Z,52.63
2022-08-26T08:40:25.301Z,51.12
2022-08-26T08:43:05.986Z,51.22
2022-08-26T08:45:58.259Z,50.57
2022-08-26T08:48:37.445Z,49.74
2022-08-26T08:51:33.640Z,49.61
2022-08-26T08:54:03.033Z,50.13
2022-08-26T08:56:57.820Z,49.79
2022-08-26T08:59:45.422Z,49.50
2022-08-26T09:03:08.216Z,49.69
2022-08-26T09:05:48.696Z,49.54
2022-08-26T09:08:22.088Z,49.36
2022-08-26T09:10:57.407Z,48.79
2022-08-26T09:13:31.725Z,48.38
2022-08-26T09:16:07.789Z,47.71
2022-08-26T09:19:19.089Z,46.03
2022-08-26T09:22:00.153Z,46.19
2022-08-26T09:24:42.014Z,46.93
2022-08-26T09:27:45.566Z,47.07
2022-08-26T09:30:33.498Z,46.73
2022-08-26T09:33:10.421Z,46.79
2022-08-26T09:35:42.313Z,47.88
2022-08-26T09:38:34.102Z,46.79
2022-08-26T09:41:05.195Z,46.02
2022-08-26T09:43:37.527Z,46.73
2022-08-26T09:46:28.795Z,45.35
2022-08-26T09:49:27.326Z,45.18
2022-08-26T09:52:36.446Z,44.95
2022-08-26T09:55:44.222Z,44.80
2022-08-26T09:58:41.994Z,44.38
2022-08-26T10:01:36.701Z,44.45
2022-08-26T10:04:11.516Z,44.43
2022-08-26T10:07:09.249Z,44.59
2022-08-26T10:09:43.673Z,44.58
2022-08-26T10:12:24.004Z,44.34
2022-08-26T10:15:04.770Z,43.83
2022-08-26T10:17:38.792Z,43.79
2022-08-26T10:20:23.435Z,43.99
2022-08-26T10:23:06.743Z,43.87
2022-08-26T10:25:47.921Z,44.14
2022-08-26T10:28:48.994Z,43.11
2022-08-26T10:31:38.252Z,43.81
2022-08-26T10:34:13.971Z,45.34
2022-08-26T10:37:15.478Z,44.90
2022-08-26T10:40:27.743Z,43.77
2022-08-26T10:43:11.068Z,44.28
2022-08-26T10:45:45.220Z,43.07
2022-08-26T10:48:26.206Z,44.10
2022-08-26T10:51:04.430Z,43.05
2022-08-26T10:53:53.312Z,43.72
2022-08-26T10:56:51.832Z,43.02
2022-08-26T10:59:56.540Z,43.82
2022-08-26T11:02:50.884Z,43.74
2022-08-26T11:05:27.861Z,44.47
2022-08-26T11:08:31.071Z,44.90
2022-08-26T11:11:01.740Z,45.26
2022-08-26T11:14:02.601Z,44.27
2022-08-26T11:16:42.861Z,44.29
2022-08-26T11:19:45.649Z,44.90
2022-08-26T11:22:33.865Z,44.63
2022-08-26T11:25:11.404Z,45.42
2022-08-26T11:27:39.228Z,45.97
2022-08-26T11:30:36.374Z,45.53
2022-08-26T11:33:06.010Z,45.63
2022-08-26T11:35:37.590Z,45.91
2022-08-26T11:38:14.917Z,45.52
2022-08-26T11:40:42.933Z,45.79
2022-08-26T11:43:15.537Z,46.21
2022-08-26T11:45:48.932Z,46.78
2022-08-26T11:48:29.300Z,47.35
2022-08-26T11:51:02.106Z,47.83
2022-08-26T11:53:33.382Z,48.79
2022-08-26T11:56:07.342Z,48.92
2022-08-26T11:58:41.209Z,47.92
2022-08-26T12:01:11.492Z,47.01
2022-08-26T12:03:45.398Z,47.19
2022-08-26T12:06:22.546Z,45.73
2022-08-26T12:08:54.026Z,43.52
2022-08-26T12:11:35.082Z,42.88
2022-08-26T12:14:05.320Z,42.93
2022-08-26T12:16:40.477Z,43.88
2022-08-26T12:19:46.504Z,44.51
2022-08-26T12:22:43.760Z,44.52
2022-08-26T12:25:24.742Z,44.72
2022-08-26T12:28:03.984Z,44.95
2022-08-26T12:30:32.500Z,44.83
2022-08-26T12:33:22.396Z,45.18
2022-08-26T12:35:56.728Z,45.39
2022-08-26T12:38:27.218Z,45.16
2022-08-26T12:40:57.355Z,45.02
2022-08-26T12:43:45.276Z,44.95
2022-08-26T12:46:33.621Z,44.68
2022-08-26T12:49:02.243Z,45.18
2022-08-26T12:51:31.953Z,45.13
2022-08-26T12:54:00.091Z,44.92
2022-08-26T12:56:36.801Z,46.50
2022-08-26T12:59:25.726Z,46.40
2022-08-26T13:01:54.570Z,47.18
2022-08-26T13:04:44.286Z,46.34
2022-08-26T13:07:25.260Z,46.65
2022-08-26T13:09:59.656Z,46.83
2022-08-26T13:12:38.523Z,46.70
2022-08-26T13:15:07.144Z,47.17
2022-08-26T13:17:36.321Z,47.50
2022-08-26T13:20:08.111Z,46.77
2022-08-26T13:22:35.794Z,47.49
2022-08-26T13:25:03.703Z,47.88
2022-08-26T13:27:33.160Z,48.13
2022-08-26T13:30:02.133Z,48.15
2022-08-26T13:32:29.701Z,48.74
2022-08-26T13:34:58.603Z,49.06
2022-08-26T13:37:35.014Z,49.66
2022-08-26T13:40:06.680Z,49.66
2022-08-26T13:42:50.002Z,49.91
2022-08-26T13:45:23.577Z,50.34
2022-08-26T13:47:51.265Z,50.44
2022-08-26T13:50:18.921Z,50.40
2022-08-26T13:52:46.956Z,49.92
2022-08-26T13:55:18.316Z,50.72
2022-08-26T13:57:45.978Z,50.39
2022-08-26T14:00:14.426Z,51.69
2022-08-26T14:02:42.020Z,51.93
2022-08-26T14:05:13.976Z,51.61
2022-08-26T14:07:47.581Z,51.30
2022-08-26T14:10:14.900Z,51.41
2022-08-26T14:12:42.909Z,52.40
2022-08-26T14:15:10.666Z,52.65
2022-08-26T14:17:38.772Z,53.45
2022-08-26T14:20:09.544Z,53.49
2022-08-26T14:22:57.397Z,53.28
2022-08-26T14:25:28.283Z,53.83
2022-08-26T14:27:57.241Z,53.42
2022-08-26T14:30:27.841Z,53.82
2022-08-26T14:32:59.773Z,53.64
2022-08-26T14:35:32.929Z,53.16
2022-08-26T14:38:00.945Z,52.83
2022-08-26T14:40:31.925Z,52.32
2022-08-26T14:43:02.202Z,52.13
2022-08-26T14:45:29.844Z,52.26
2022-08-26T14:48:00.065Z,51.66
2022-08-26T14:50:28.432Z,51.24
2022-08-26T14:53:14.504Z,51.90
2022-08-26T14:55:43.004Z,52.35
2022-08-26T14:58:10.662Z,52.97
2022-08-26T15:00:38.588Z,54.42
2022-08-26T15:03:06.473Z,54.59
2022-08-26T15:05:34.835Z,55.52
2022-08-26T15:08:04.814Z,55.86
2022-08-26T15:10:32.212Z,56.21
2022-08-26T15:12:59.870Z,55.76
2022-08-26T15:15:29.611Z,56.26
2022-08-26T15:17:57.480Z,55.88
2022-08-26T15:20:25.269Z,55.42
2022-08-26T15:22:54.010Z,55.08
2022-08-26T15:25:44.501Z,53.98
2022-08-26T15:28:16.034Z,53.37
2022-08-26T15:30:50.673Z,53.77
2022-08-26T15:33:26.071Z,53.83
2022-08-26T15:35:57.488Z,54.00
2022-08-26T15:38:31.660Z,54.43
2022-08-26T15:41:04.348Z,54.29
2022-08-26T15:43:32.047Z,54.08
2022-08-26T15:46:00.765Z,54.00
2022-08-26T15:48:28.628Z,54.53
2022-08-26T15:51:03.966Z,54.54
2022-08-26T15:53:41.546Z,54.60
2022-08-26T15:56:19.690Z,54.60
2022-08-26T15:58:53.478Z,54.48
2022-08-26T16:01:35.915Z,54.14
2022-08-26T16:04:25.215Z,53.80
2022-08-26T16:06:57.057Z,53.81
2022-08-26T16:09:38.276Z,54.06
2022-08-26T16:12:10.802Z,54.17
2022-08-26T16:14:56.728Z,53.76
2022-08-26T16:17:29.302Z,53.60
2022-08-26T16:20:01.651Z,53.83
2022-08-26T16:22:59.473Z,54.24
2022-08-26T16:25:32.347Z,54.70
2022-08-26T16:28:06.145Z,54.55
2022-08-26T16:30:43.124Z,54.95
2022-08-26T16:33:14.817Z,55.11
2022-08-26T16:36:06.526Z,55.95
2022-08-26T16:38:38.934Z,56.02
2022-08-26T16:41:08.984Z,56.18
2022-08-26T16:43:45.838Z,56.08
2022-08-26T16:50:07.738Z,54.60
2022-08-26T16:52:38.466Z,53.89
2022-08-26T16:55:11.956Z,54.09
2022-08-26T16:58:02.675Z,54.23
2022-08-26T17:00:35.229Z,53.85
2022-08-26T17:03:03.993Z,53.97
2022-08-26T17:05:32.032Z,54.27
2022-08-26T17:08:01.889Z,54.05
2022-08-26T17:10:31.552Z,53.93
2022-08-26T17:12:59.850Z,54.33
2022-08-26T17:15:27.843Z,54.64
2022-08-26T17:17:57.045Z,55.02
2022-08-26T17:20:25.771Z,54.57
2022-08-26T17:22:55.551Z,54.67
2022-08-26T17:25:29.290Z,55.31
2022-08-26T17:30:30.842Z,54.80
2022-08-26T17:32:59.406Z,55.09
2022-08-26T17:35:27.812Z,55.40
2022-08-26T17:37:56.888Z,55.32
2022-08-26T17:40:27.488Z,55.46
2022-08-26T17:42:56.016Z,55.51
2022-08-26T17:45:29.916Z,55.77
2022-08-26T17:47:57.866Z,55.80
2022-08-26T17:50:26.359Z,55.56
2022-08-26T17:52:54.353Z,55.88
2022-08-26T17:55:23.525Z,55.73
2022-08-26T18:00:49.332Z,55.74
2022-08-26T18:03:19.513Z,55.90
2022-08-26T18:05:53.787Z,55.86
2022-08-26T18:08:22.191Z,55.66
2022-08-26T18:10:52.095Z,55.83
2022-08-26T18:13:25.805Z,54.90
2022-08-26T18:15:56.209Z,54.62
2022-08-26T18:18:28.631Z,54.39
2022-08-26T18:21:02.372Z,54.12
2022-08-26T18:23:31.946Z,51.60
2022-08-26T18:26:00.037Z,52.15
2022-08-26T18:28:28.576Z,52.37
2022-08-26T18:30:58.698Z,52.65
2022-08-26T18:33:35.026Z,52.21
2022-08-26T18:36:05.710Z,53.09
2022-08-26T18:38:33.682Z,52.22
2022-08-26T18:41:06.884Z,52.73
2022-08-26T18:43:45.990Z,52.84
2022-08-26T18:46:15.329Z,53.72
2022-08-26T18:48:50.742Z,53.55
2022-08-26T18:51:28.853Z,53.11
2022-08-26T18:53:57.790Z,52.15
2022-08-26T18:56:25.627Z,54.47
2022-08-26T18:58:53.597Z,52.60
2022-08-26T19:01:25.467Z,53.09
2022-08-26T19:03:56.497Z,52.64
2022-08-26T19:06:26.623Z,52.68
2022-08-26T19:08:59.811Z,52.92
2022-08-26T19:11:32.189Z,52.56
2022-08-26T19:14:03.057Z,53.40
2022-08-26T19:16:32.086Z,52.93
2022-08-26T19:19:04.545Z,53.61
2022-08-26T19:21:34.554Z,52.80
2022-08-26T19:24:05.953Z,52.79
2022-08-26T19:26:34.767Z,52.89
2022-08-26T19:29:06.191Z,52.40
2022-08-26T19:31:33.967Z,53.07
2022-08-26T19:34:01.765Z,53.22
2022-08-26T19:36:31.913Z,52.30
2022-08-26T19:39:01.041Z,51.81
2022-08-26T19:41:36.840Z,52.63
2022-08-26T19:44:13.833Z,52.99
2022-08-26T19:46:44.804Z,52.77
2022-08-26T19:49:13.362Z,52.24
2022-08-26T19:51:46.347Z,52.83
2022-08-26T19:54:14.336Z,52.59
2022-08-26T19:56:42.114Z,53.41
2022-08-26T19:59:09.843Z,52.92
2022-08-26T20:01:39.779Z,51.46
2022-08-26T20:04:10.840Z,52.46
2022-08-26T20:06:45.843Z,51.47
2022-08-26T20:09:22.539Z,52.23
2022-08-26T20:11:50.802Z,52.13
2022-08-26T20:14:24.966Z,51.93
2022-08-26T20:16:59.958Z,51.82
2022-08-26T20:20:03.060Z,51.22
2022-08-26T20:22:31.871Z,51.28
2022-08-26T20:25:00.947Z,52.13
2022-08-26T20:27:35.565Z,52.17
2022-08-26T20:30:08.330Z,50.94
2022-08-26T20:32:38.778Z,51.84
2022-08-26T20:35:11.935Z,49.55
2022-08-26T20:37:41.511Z,50.47
2022-08-26T20:40:12.013Z,49.94
2022-08-26T20:42:40.181Z,48.69
2022-08-26T20:45:09.077Z,49.05
2022-08-26T20:47:37.801Z,49.63
2022-08-26T20:50:08.540Z,49.13
2022-08-26T20:52:43.388Z,48.83
2022-08-26T20:55:15.821Z,49.44
2022-08-26T20:57:48.710Z,49.51
2022-08-26T21:00:18.540Z,50.03
2022-08-26T21:02:57.558Z,49.73
2022-08-26T21:05:25.668Z,50.15
2022-08-26T21:07:53.594Z,50.50
2022-08-26T21:10:23.104Z,51.32
2022-08-26T21:12:53.231Z,51.07
2022-08-26T21:15:30.043Z,51.16
2022-08-26T21:18:00.267Z,51.51
2022-08-26T21:20:28.704Z,51.20
2022-08-26T21:23:03.173Z,50.93
2022-08-26T21:25:51.601Z,51.75
2022-08-26T21:28:37.285Z,51.49
2022-08-26T21:31:13.984Z,51.65
2022-08-26T21:33:43.719Z,52.36
2022-08-26T21:36:29.958Z,52.17
2022-08-26T21:39:17.767Z,52.88
2022-08-26T21:41:53.424Z,52.93
2022-08-26T21:44:21.195Z,53.12
2022-08-26T21:46:51.236Z,53.74
2022-08-26T21:49:18.871Z,53.09
2022-08-26T21:51:52.390Z,53.43
2022-08-26T21:54:26.152Z,53.60
2022-08-26T21:57:00.774Z,53.81
2022-08-26T21:59:28.965Z,54.46
2022-08-26T22:02:06.585Z,54.05
2022-08-26T22:04:48.670Z,53.68
2022-08-26T22:07:28.220Z,53.64
2022-08-26T22:10:12.736Z,53.65
2022-08-26T22:12:41.494Z,53.86
2022-08-26T22:15:13.942Z,54.16
2022-08-26T22:18:00.941Z,53.63
2022-08-26T22:20:29.654Z,53.31
2022-08-26T22:23:04.943Z,53.58
2022-08-26T22:25:42.087Z,53.87
2022-08-26T22:28:13.216Z,53.58
2022-08-26T22:30:44.693Z,53.14
2022-08-26T22:33:41.895Z,53.23
2022-08-26T22:36:17.697Z,53.42
2022-08-26T22:38:46.421Z,53.80
2022-08-26T22:41:29.532Z,53.63
2022-08-26T22:47:02.409Z,53.57
2022-08-26T22:49:30.641Z,54.19
2022-08-26T22:51:59.676Z,54.22
2022-08-26T22:54:44.648Z,54.46
2022-08-26T22:57:13.079Z,54.35
2022-08-26T22:59:49.691Z,54.67
2022-08-26T23:02:31.100Z,54.96
2022-08-26T23:04:59.484Z,55.69
2022-08-26T23:08:02.376Z,55.79
2022-08-26T23:13:23.400Z,56.16
2022-08-26T23:16:02.451Z,56.34
2022-08-26T23:18:31.839Z,56.70
2022-08-26T23:20:59.679Z,56.93
2022-08-26T23:23:28.104Z,57.09
2022-08-26T23:25:57.489Z,57.33
2022-08-26T23:28:26.396Z,57.16
2022-08-26T23:30:54.653Z,57.00
2022-08-26T23:33:46.649Z,56.77
2022-08-26T23:36:17.849Z,56.47
2022-08-26T23:38:52.458Z,56.70
2022-08-26T23:41:25.006Z,56.64
2022-08-26T23:43:53.401Z,56.87
2022-08-26T23:46:22.867Z,56.63
2022-08-26T23:48:53.549Z,56.41
2022-08-26T23:51:41.108Z,56.66
2022-08-26T23:54:09.166Z,56.50
2022-08-26T23:56:39.865Z,56.56
2022-08-26T23:59:08.874Z,56.82
